createdAt,value
2022-10-05T00:00:22.601Z,101502.13
2022-10-05T00:03:32.994Z,101507.78
2022-10-05T00:06:41.544Z,101505.09
2022-10-05T00:10:05.560Z,101501.13
2022-10-05T00:13:17.255Z,101503.38
2022-10-05T00:16:27.838Z,101510.72
2022-10-05T00:19:45.519Z,101501.34
2022-10-05T00:23:00.984Z,101492.94
2022-10-05T00:26:18.553Z,101497.19
2022-10-05T00:29:34.532Z,101504.44
2022-10-05T00:32:42.531Z,101464.06
2022-10-05T00:35:51.115Z,101499.00
2022-10-05T00:39:08.560Z,101500.25
2022-10-05T00:42:45.549Z,101491.53
2022-10-05T00:46:03.839Z,101479.09
2022-10-05T00:49:45.587Z,101486.16
2022-10-05T00:53:16.554Z,101488.38
2022-10-05T00:56:46.303Z,101488.00
2022-10-05T01:00:12.588Z,101476.50
2022-10-05T01:03:28.512Z,101486.41
2022-10-05T01:07:03.535Z,101485.25
2022-10-05T01:10:41.563Z,101488.03
2022-10-05T01:13:53.451Z,101496.44
2022-10-05T01:17:15.594Z,101498.28
2022-10-05T01:20:41.573Z,101512.88
2022-10-05T01:24:16.573Z,101521.19
2022-10-05T01:27:46.828Z,101515.81
2022-10-05T01:31:07.593Z,101526.84
2022-10-05T01:34:37.600Z,101521.59
2022-10-05T01:38:04.529Z,101523.56
2022-10-05T01:41:27.616Z,101527.09
2022-10-05T01:44:51.590Z,101530.72
2022-10-05T01:48:19.636Z,101523.75
2022-10-05T01:51:40.604Z,101520.44
2022-10-05T01:55:10.791Z,101519.47
2022-10-05T01:58:41.547Z,101521.56
2022-10-05T02:02:10.634Z,101524.63
2022-10-05T02:05:30.608Z,101527.09
2022-10-05T02:08:43.571Z,101539.81
2022-10-05T02:12:10.579Z,101540.34
2022-10-05T02:15:31.636Z,101543.19
2022-10-05T02:18:42.683Z,101545.16
2022-10-05T02:22:05.631Z,101534.66
2022-10-05T02:25:17.440Z,101540.75
2022-10-05T02:28:31.633Z,101542.59
2022-10-05T02:32:00.575Z,101542.84
2022-10-05T02:35:15.700Z,101540.88
2022-10-05T02:38:40.613Z,101546.38
2022-10-05T02:42:04.674Z,101548.94
2022-10-05T02:45:24.325Z,101553.59
2022-10-05T02:48:54.608Z,101550.91
2022-10-05T02:52:28.154Z,101558.00
2022-10-05T02:55:52.620Z,101565.06
2022-10-05T02:59:29.633Z,101554.78
2022-10-05T03:02:48.781Z,101557.59
2022-10-05T03:06:06.615Z,101561.66
2022-10-05T03:09:26.542Z,101555.56
2022-10-05T03:13:04.692Z,101547.09
2022-10-05T03:16:39.619Z,101552.13
2022-10-05T03:20:03.375Z,101542.09
2022-10-05T03:23:20.620Z,101537.69
2022-10-05T03:26:47.399Z,101528.44
2022-10-05T03:30:11.609Z,101530.38
2022-10-05T03:33:34.653Z,101526.47
2022-10-05T03:36:53.203Z,101536.97
2022-10-05T03:40:20.638Z,101535.88
2022-10-05T03:43:59.007Z,101539.41
2022-10-05T03:47:26.670Z,101546.50
2022-10-05T03:50:52.640Z,101543.06
2022-10-05T03:54:05.435Z,101553.94
2022-10-05T03:57:26.632Z,101560.69
2022-10-05T04:00:37.289Z,101565.09
2022-10-05T04:03:52.683Z,101562.63
2022-10-05T04:07:08.646Z,101568.38
2022-10-05T04:10:19.143Z,101568.00
2022-10-05T04:13:50.686Z,101556.53
2022-10-05T04:17:12.626Z,101553.84
2022-10-05T04:20:28.954Z,101566.06
2022-10-05T04:23:52.696Z,101570.91
2022-10-05T04:26:58.619Z,101573.97
2022-10-05T04:30:21.703Z,101563.38
2022-10-05T04:33:38.631Z,101558.50
2022-10-05T04:36:50.203Z,101567.03
2022-10-05T04:40:29.658Z,101570.69
2022-10-05T04:43:50.905Z,101569.13
2022-10-05T04:47:22.706Z,101575.59
2022-10-05T04:51:04.650Z,101580.97
2022-10-05T04:54:24.017Z,101574.75
2022-10-05T04:57:57.673Z,101575.09
2022-10-05T05:01:31.682Z,101577.44
2022-10-05T05:04:55.908Z,101566.81
2022-10-05T05:08:38.732Z,101563.00
2022-10-05T05:12:07.603Z,101562.41
2022-10-05T05:15:39.679Z,101565.56
2022-10-05T05:19:14.647Z,101563.59
2022-10-05T05:22:34.235Z,101561.31
2022-10-05T05:25:58.674Z,101567.03
2022-10-05T05:29:24.744Z,101569.13
2022-10-05T05:32:51.690Z,101575.34
2022-10-05T05:36:28.730Z,101570.22
2022-10-05T05:40:06.742Z,101572.31
2022-10-05T05:43:31.652Z,101579.47
2022-10-05T05:47:03.128Z,101579.59
2022-10-05T05:50:37.718Z,101589.63
2022-10-05T05:53:50.664Z,101598.66
2022-10-05T05:57:08.868Z,101607.09
2022-10-05T06:00:36.709Z,101613.47
2022-10-05T06:03:58.052Z,101620.53
2022-10-05T06:07:17.733Z,101614.66
2022-10-05T06:10:44.864Z,101630.91
2022-10-05T06:13:59.207Z,101640.91
2022-10-05T06:17:23.786Z,101651.09
2022-10-05T06:20:41.698Z,101656.84
2022-10-05T06:24:10.302Z,101657.91
2022-10-05T06:27:33.808Z,101669.69
2022-10-05T06:30:58.090Z,101677.59
2022-10-05T06:34:22.762Z,101670.22
2022-10-05T06:38:08.805Z,101670.94
2022-10-05T06:41:37.700Z,101680.72
2022-10-05T06:45:01.733Z,101683.91
2022-10-05T06:48:35.734Z,101686.19
2022-10-05T06:51:57.103Z,101674.88
2022-10-05T06:55:22.791Z,101685.31
2022-10-05T06:58:49.688Z,101690.47
2022-10-05T07:02:16.809Z,101694.31
2022-10-05T07:06:01.772Z,101698.56
2022-10-05T07:09:41.752Z,101705.97
2022-10-05T07:13:16.737Z,101711.56
2022-10-05T07:16:29.999Z,101709.47
2022-10-05T07:20:01.750Z,101712.63
2022-10-05T07:23:24.772Z,101702.47
2022-10-05T07:26:46.223Z,101703.34
2022-10-05T07:30:12.738Z,101695.38
2022-10-05T07:33:30.809Z,101700.66
2022-10-05T07:36:54.871Z,101726.34
2022-10-05T07:40:36.799Z,101723.03
2022-10-05T07:44:02.632Z,101718.88
2022-10-05T07:47:35.760Z,101715.44
2022-10-05T07:50:59.792Z,101705.34
2022-10-05T07:54:26.816Z,101704.78
2022-10-05T07:58:00.793Z,101704.25
2022-10-05T08:01:26.431Z,101707.28
2022-10-05T08:04:56.824Z,101715.72
2022-10-05T08:08:31.817Z,101721.16
2022-10-05T08:12:02.823Z,101722.03
2022-10-05T08:15:23.848Z,101723.88
2022-10-05T08:18:56.797Z,101712.50
2022-10-05T08:22:05.033Z,101707.22
2022-10-05T08:25:32.795Z,101694.00
2022-10-05T08:29:13.663Z,101690.13
2022-10-05T08:32:24.213Z,101678.88
2022-10-05T08:35:45.821Z,101686.94
2022-10-05T08:38:49.908Z,101687.72
2022-10-05T08:42:24.783Z,101692.75
2022-10-05T08:46:12.028Z,101690.66
2022-10-05T08:49:42.552Z,101669.88
2022-10-05T08:53:21.814Z,101683.19
2022-10-05T08:56:43.303Z,101678.06
2022-10-05T09:00:17.810Z,101682.56
2022-10-05T09:04:05.484Z,101682.47
2022-10-05T09:07:46.524Z,101689.00
2022-10-05T09:11:10.839Z,101692.66
2022-10-05T09:15:20.484Z,101690.38
2022-10-05T09:18:53.938Z,101706.06
2022-10-05T09:22:09.809Z,101708.28
2022-10-05T09:25:23.475Z,101705.41
2022-10-05T09:28:40.939Z,101716.72
2022-10-05T09:32:25.873Z,101713.53
2022-10-05T09:35:50.619Z,101701.56
2022-10-05T09:39:35.843Z,101699.34
2022-10-05T09:43:10.832Z,101703.03
2022-10-05T09:46:45.556Z,101704.16
2022-10-05T09:50:29.859Z,101708.31
2022-10-05T09:53:57.439Z,101702.25
2022-10-05T09:57:30.961Z,101701.63
2022-10-05T10:01:09.971Z,101698.31
2022-10-05T10:04:35.042Z,101695.53
2022-10-05T10:08:20.864Z,101687.81
2022-10-05T10:12:00.863Z,101681.19
2022-10-05T10:15:27.888Z,101688.44
2022-10-05T10:18:53.925Z,101691.94
2022-10-05T10:22:22.420Z,101692.06
2022-10-05T10:26:00.808Z,101699.59
2022-10-05T10:29:32.345Z,101697.78
2022-10-05T10:33:16.860Z,101700.38
2022-10-05T10:36:44.840Z,101703.47
2022-10-05T10:40:23.408Z,101700.91
2022-10-05T10:44:07.846Z,101696.84
2022-10-05T10:47:39.929Z,101690.97
2022-10-05T10:51:19.047Z,101686.19
2022-10-05T10:55:08.903Z,101694.37
2022-10-05T10:58:36.854Z,101697.41
2022-10-05T11:02:20.752Z,101695.50
2022-10-05T11:05:57.870Z,101693.47
2022-10-05T11:09:30.904Z,101702.00
2022-10-05T11:13:17.748Z,101696.75
2022-10-05T11:16:52.103Z,101696.91
2022-10-05T11:20:22.372Z,101682.66
2022-10-05T11:24:12.868Z,101685.19
2022-10-05T11:27:48.953Z,101679.38
2022-10-05T11:31:25.383Z,101667.22
2022-10-05T11:35:02.263Z,101673.53
2022-10-05T11:39:02.609Z,101657.22
2022-10-05T11:42:23.626Z,101652.72
2022-10-05T11:46:02.943Z,101659.53
2022-10-05T11:49:49.162Z,101652.28
2022-10-05T11:53:03.780Z,101654.37
2022-10-05T11:56:43.471Z,101643.41
2022-10-05T12:00:20.698Z,101638.19
2022-10-05T12:03:53.648Z,101636.50
2022-10-05T12:07:25.019Z,101628.56
2022-10-05T12:11:07.911Z,101620.25
2022-10-05T12:14:44.929Z,101627.59
2022-10-05T12:18:08.928Z,101625.03
2022-10-05T12:21:28.558Z,101618.88
2022-10-05T12:25:03.960Z,101630.81
2022-10-05T12:28:17.641Z,101614.16
2022-10-05T12:31:39.184Z,101610.94
2022-10-05T12:35:36.653Z,101614.03
2022-10-05T12:39:02.683Z,101607.16
2022-10-05T12:42:41.586Z,101602.59
2022-10-05T12:46:07.966Z,101601.28
2022-10-05T12:49:40.472Z,101592.00
2022-10-05T12:53:09.961Z,101583.94
2022-10-05T12:56:45.911Z,101584.69
2022-10-05T13:00:03.651Z,101590.94
2022-10-05T13:03:35.960Z,101584.53
2022-10-05T13:07:08.980Z,101577.34
2022-10-05T13:11:14.871Z,101583.13
2022-10-05T13:14:53.960Z,101585.87
2022-10-05T13:18:22.059Z,101586.50
2022-10-05T13:21:45.738Z,101586.63
2022-10-05T13:25:07.951Z,101582.44
2022-10-05T13:28:22.270Z,101577.00
2022-10-05T13:31:37.987Z,101566.31
2022-10-05T13:35:11.411Z,101567.19
2022-10-05T13:38:38.615Z,101572.66
2022-10-05T13:42:06.957Z,101569.06
2022-10-05T13:45:33.051Z,101569.06
2022-10-05T13:49:01.798Z,101563.09
2022-10-05T13:52:35.987Z,101568.59
2022-10-05T13:55:58.850Z,101558.13
2022-10-05T13:59:38.138Z,101543.50
2022-10-05T14:02:51.592Z,101563.53
2022-10-05T14:06:01.889Z,101563.47
2022-10-05T14:09:34.998Z,101574.59
2022-10-05T14:12:44.598Z,101567.75
2022-10-05T14:16:19.663Z,101564.31
2022-10-05T14:19:34.031Z,101574.19
2022-10-05T14:22:43.021Z,101568.06
2022-10-05T14:25:58.036Z,101567.91
2022-10-05T14:29:19.008Z,101570.13
2022-10-05T14:32:38.984Z,101567.47
2022-10-05T14:36:01.058Z,101572.44
2022-10-05T14:39:03.451Z,101569.81
2022-10-05T14:42:23.128Z,101561.56
2022-10-05T14:45:27.197Z,101569.78
2022-10-05T14:48:49.020Z,101564.75
2022-10-05T14:52:04.010Z,101564.41
2022-10-05T14:55:23.004Z,101562.75
2022-10-05T14:58:55.057Z,101557.66
2022-10-05T15:02:34.197Z,101567.84
2022-10-05T15:05:49.590Z,101559.88
2022-10-05T15:09:25.031Z,101553.62
2022-10-05T15:12:42.503Z,101546.09
2022-10-05T15:16:02.113Z,101541.19
2022-10-05T15:19:25.031Z,101541.87
2022-10-05T15:22:39.914Z,101536.81
2022-10-05T15:26:18.247Z,101542.94
2022-10-05T15:29:51.346Z,101547.03
2022-10-05T15:33:15.156Z,101555.53
2022-10-05T15:36:45.992Z,101540.56
2022-10-05T15:40:01.061Z,101530.22
2022-10-05T15:43:15.370Z,101523.59
2022-10-05T15:46:41.995Z,101534.16
2022-10-05T15:50:05.988Z,101525.47
2022-10-05T15:53:31.049Z,101524.97
2022-10-05T15:56:52.008Z,101532.75
2022-10-05T16:00:13.853Z,101538.56
2022-10-05T16:03:52.022Z,101534.50
2022-10-05T16:07:02.703Z,101547.38
2022-10-05T16:10:24.111Z,101544.66
2022-10-05T16:14:06.061Z,101539.56
2022-10-05T16:17:22.547Z,101543.97
2022-10-05T16:20:55.075Z,101548.22
2022-10-05T16:24:29.043Z,101546.00
2022-10-05T16:28:05.328Z,101550.72
2022-10-05T16:31:28.069Z,101547.66
2022-10-05T16:34:57.736Z,101551.03
2022-10-05T16:38:42.037Z,101545.25
2022-10-05T16:42:18.126Z,101552.72
2022-10-05T16:45:45.612Z,101558.97
2022-10-05T16:49:14.026Z,101567.62
2022-10-05T16:52:32.091Z,101562.31
2022-10-05T16:55:41.834Z,101565.69
2022-10-05T16:59:26.318Z,101565.19
2022-10-05T17:03:11.069Z,101582.47
2022-10-05T17:06:34.887Z,101581.97
2022-10-05T17:10:09.118Z,101583.84
2022-10-05T17:13:54.148Z,101587.19
2022-10-05T17:17:21.927Z,101587.66
2022-10-05T17:20:59.120Z,101594.44
2022-10-05T17:24:39.082Z,101591.19
2022-10-05T17:27:52.569Z,101585.06
2022-10-05T17:31:20.167Z,101595.91
2022-10-05T17:34:28.543Z,101589.81
2022-10-05T17:37:48.094Z,101597.09
2022-10-05T17:41:26.117Z,101601.31
2022-10-05T17:44:34.771Z,101604.31
2022-10-05T17:48:08.113Z,101598.38
2022-10-05T17:51:49.772Z,101603.44
2022-10-05T17:55:09.100Z,101605.44
2022-10-05T17:58:57.100Z,101610.69
2022-10-05T18:02:25.776Z,101605.56
2022-10-05T18:05:41.103Z,101605.25
2022-10-05T18:08:43.035Z,101603.41
2022-10-05T18:12:21.119Z,101599.00
2022-10-05T18:15:51.111Z,101597.88
2022-10-05T18:18:59.966Z,101594.94
2022-10-05T18:22:34.099Z,101594.94
2022-10-05T18:25:55.143Z,101601.78
2022-10-05T18:29:23.676Z,101597.44
2022-10-05T18:33:00.171Z,101602.31
2022-10-05T18:36:29.953Z,101600.41
2022-10-05T18:40:00.310Z,101604.59
2022-10-05T18:43:28.168Z,101600.66
2022-10-05T18:46:56.768Z,101607.41
2022-10-05T18:50:25.160Z,101604.00
2022-10-05T18:54:03.175Z,101603.44
2022-10-05T18:57:36.759Z,101597.34
2022-10-05T19:01:23.247Z,101602.34
2022-10-05T19:05:01.131Z,101596.41
2022-10-05T19:08:23.368Z,101596.88
2022-10-05T19:11:53.133Z,101600.91
2022-10-05T19:15:12.476Z,101600.81
2022-10-05T19:18:53.176Z,101599.97
2022-10-05T19:22:18.876Z,101601.44
2022-10-05T19:25:59.140Z,101604.91
2022-10-05T19:29:39.595Z,101604.91
2022-10-05T19:33:03.252Z,101615.34
2022-10-05T19:36:37.190Z,101608.38
2022-10-05T19:40:09.551Z,101617.66
2022-10-05T19:43:31.825Z,101616.13
2022-10-05T19:47:02.172Z,101625.63
2022-10-05T19:50:32.194Z,101617.13
2022-10-05T19:53:45.688Z,101624.69
2022-10-05T19:57:01.155Z,101622.44
2022-10-05T20:00:03.771Z,101628.97
2022-10-05T20:03:25.139Z,101632.81
2022-10-05T20:06:41.148Z,101639.22
2022-10-05T20:09:57.295Z,101636.16
2022-10-05T20:13:28.160Z,101643.84
2022-10-05T20:16:39.314Z,101640.44
2022-10-05T20:19:47.854Z,101642.16
2022-10-05T20:23:27.207Z,101646.00
2022-10-05T20:26:43.978Z,101658.69
2022-10-05T20:30:00.179Z,101654.28
2022-10-05T20:33:08.145Z,101655.25
2022-10-05T20:36:16.810Z,101654.88
2022-10-05T20:39:31.154Z,101651.16
2022-10-05T20:42:32.922Z,101650.31
2022-10-05T20:45:47.184Z,101659.84
2022-10-05T20:48:49.137Z,101653.75
2022-10-05T20:52:05.203Z,101655.34
2022-10-05T20:55:20.247Z,101655.62
2022-10-05T20:58:22.119Z,101655.09
2022-10-05T21:01:37.190Z,101650.37
2022-10-05T21:04:46.704Z,101652.22
2022-10-05T21:07:55.198Z,101653.38
2022-10-05T21:11:17.203Z,101655.38
2022-10-05T21:14:25.195Z,101656.66
2022-10-05T21:17:40.249Z,101655.13
2022-10-05T21:20:48.906Z,101650.00
2022-10-05T21:23:57.250Z,101651.13
2022-10-05T21:27:06.381Z,101652.59
2022-10-05T21:30:21.221Z,101651.47
2022-10-05T21:33:22.974Z,101652.59
2022-10-05T21:36:37.232Z,101652.03
2022-10-05T21:39:39.030Z,101638.13
2022-10-05T21:42:54.231Z,101656.03
2022-10-05T21:46:03.137Z,101641.81
2022-10-05T21:49:17.475Z,101650.91
2022-10-05T21:52:34.244Z,101656.87
2022-10-05T21:55:53.235Z,101650.94
2022-10-05T21:58:55.170Z,101654.75
2022-10-05T22:02:10.597Z,101640.37
2022-10-05T22:05:12.548Z,101656.06
2022-10-05T22:08:32.515Z,101645.53
2022-10-05T22:11:47.268Z,101651.34
2022-10-05T22:14:56.256Z,101640.00
2022-10-05T22:18:11.264Z,101642.00
2022-10-05T22:21:20.116Z,101647.94
2022-10-05T22:24:28.276Z,101647.94
2022-10-05T22:27:37.123Z,101632.44
2022-10-05T22:30:53.315Z,101630.59
2022-10-05T22:34:01.231Z,101641.56
2022-10-05T22:37:19.353Z,101639.41
2022-10-05T22:40:29.281Z,101637.25
2022-10-05T22:43:38.216Z,101636.13
2022-10-05T22:46:53.271Z,101638.25
2022-10-05T22:49:55.087Z,101635.41
2022-10-05T22:53:10.280Z,101632.72
2022-10-05T22:56:25.275Z,101627.31
2022-10-05T22:59:27.047Z,101629.31
2022-10-05T23:02:43.337Z,101627.88
2022-10-05T23:05:45.227Z,101618.91
2022-10-05T23:09:01.248Z,101621.47
2022-10-05T23:12:16.584Z,101611.09
2022-10-05T23:15:25.293Z,101611.09
2022-10-05T23:18:34.428Z,101609.56
2022-10-05T23:21:42.244Z,101612.25
2022-10-05T23:24:51.679Z,101608.69
2022-10-05T23:28:08.306Z,101601.72
2022-10-05T23:31:10.098Z,101601.72
2022-10-05T23:34:25.326Z,101606.84
2022-10-05T23:37:37.407Z,101604.00
2022-10-05T23:40:46.260Z,101608.25
2022-10-05T23:43:54.884Z,101597.44
2022-10-05T23:47:03.353Z,101599.44
2022-10-05T23:50:15.534Z,101590.34
2022-10-05T23:53:31.302Z,101601.72
2022-10-05T23:56:40.300Z,101600.84
2022-10-05T23:59:48.852Z,101593.91
